Time;durP1;ratioP1;P1;durP2;ratioP2;P2;SDS_P1;SDS_P2;PMS_P1;PMS_P2;Temp;Humidity;BMP_temperature;BMP_pressure;BME280_temperature;BME280_humidity;BME280_pressure;Samples;Min_cycle;Max_cycle;Signal;HPM_P1;HPM_P2
2023/06/27 00:02:02;;;;;;;;;2.00;1.00;;;;;22.15;65.74;101995.19;5076545;28;45355;-72
2023/06/27 00:04:28;;;;;;;;;2.33;1.00;;;;;22.08;65.84;101993.50;5058906;28;45425;-74
2023/06/27 00:06:53;;;;;;;;;2.00;1.00;;;;;22.08;66.05;101996.19;5073017;28;45548;-72
2023/06/27 00:09:19;;;;;;;;;2.33;2.00;;;;;22.09;66.31;101989.91;5076682;28;46393;-72
2023/06/27 00:11:44;;;;;;;;;3.00;1.67;;;;;22.10;67.06;101994.34;5076866;28;45473;-73
2023/06/27 00:14:10;;;;;;;;;1.00;1.00;;;;;22.10;66.95;101994.34;5076872;28;45722;-75
2023/06/27 00:16:36;;;;;;;;;0.00;0.00;;;;;22.00;67.21;101996.34;5075084;28;45431;-73
2023/06/27 00:19:02;;;;;;;;;1.00;1.00;;;;;21.93;67.66;102003.63;5072584;27;46598;-73
2023/06/27 00:21:29;;;;;;;;;2.00;1.00;;;;;21.84;68.32;102003.78;5063965;28;45514;-74
2023/06/27 00:23:57;;;;;;;;;1.67;0.00;;;;;21.76;68.00;101997.66;5073753;28;45261;-72
2023/06/27 00:26:23;;;;;;;;;1.33;0.67;;;;;21.70;68.56;101995.06;5068745;28;45481;-72
2023/06/27 00:28:48;;;;;;;;;1.33;0.00;;;;;21.70;68.52;102000.44;5067480;28;46457;-73
2023/06/27 00:31:14;;;;;;;;;2.00;0.00;;;;;21.63;69.32;101999.66;5065774;28;59017;-72
2023/06/27 00:33:39;;;;;;;;;1.00;1.00;;;;;21.63;69.65;102002.34;5071463;28;45439;-74
2023/06/27 00:36:05;;;;;;;;;1.00;1.00;;;;;21.59;69.61;101994.34;5064132;28;58106;-73
2023/06/27 00:38:31;;;;;;;;;2.67;1.00;;;;;21.60;70.08;101993.44;5067207;28;45711;-73
2023/06/27 00:40:57;;;;;;;;;0.67;0.67;;;;;21.61;70.27;101995.22;5062108;28;45362;-74
2023/06/27 00:43:23;;;;;;;;;0.00;0.00;;;;;21.58;70.34;101990.78;5076033;28;45405;-74
2023/06/27 00:45:49;;;;;;;;;1.00;1.00;;;;;21.59;70.34;101997.94;5067868;28;45537;-72
2023/06/27 00:48:15;;;;;;;;;2.00;1.00;;;;;21.58;71.02;102004.22;5047402;28;47897;-72
2023/06/27 00:50:40;;;;;;;;;1.00;1.00;;;;;21.53;71.02;101998.03;5067527;28;45423;-76
2023/06/27 00:53:06;;;;;;;;;1.00;1.00;;;;;21.52;71.01;102007.00;5047155;28;45397;-74
2023/06/27 00:55:32;;;;;;;;;0.00;0.00;;;;;21.49;71.94;102006.16;5067026;28;52283;-72
2023/06/27 00:57:58;;;;;;;;;0.33;0.33;;;;;21.45;71.87;101994.56;5061402;28;46885;-72
2023/06/27 01:00:23;;;;;;;;;2.67;1.00;;;;;21.44;72.65;101993.69;5078645;28;45463;-72
2023/06/27 01:02:49;;;;;;;;;2.00;1.00;;;;;21.43;72.67;101999.09;5071249;28;45413;-72
2023/06/27 01:05:16;;;;;;;;;3.00;1.67;;;;;21.41;72.84;102001.81;5073564;28;45433;-74
2023/06/27 01:07:41;;;;;;;;;2.00;1.00;;;;;21.39;73.46;101995.53;5049493;28;48279;-74
2023/06/27 01:10:14;;;;;;;;;0.33;0.33;;;;;21.35;73.39;101995.63;5074166;28;45373;-74
2023/06/27 01:13:02;;;;;;;;;1.00;0.00;;;;;21.32;73.71;101993.88;5062524;28;45371;-74
2023/06/27 01:15:28;;;;;;;;;1.00;1.00;;;;;21.32;73.96;102001.06;5071181;28;45408;-72
2023/06/27 01:17:55;;;;;;;;;0.00;0.00;;;;;21.31;74.26;101997.47;5061185;28;46207;-73
2023/06/27 01:20:21;;;;;;;;;2.00;0.67;;;;;21.31;74.71;101999.28;5078309;28;45675;-74
2023/06/27 01:23:22;;;;;;;;;4.00;1.00;;;;;21.28;74.90;101992.09;5058166;28;45421;-73
2023/06/27 01:25:50;;;;;;;;;3.33;1.00;;;;;21.22;74.46;101994.88;5037981;28;45239;-72
2023/06/27 01:28:17;;;;;;;;;1.00;0.67;;;;;21.24;75.47;102002.91;5071028;28;46601;-72
2023/06/27 01:30:42;;;;;;;;;2.67;1.00;;;;;21.20;75.16;101994.03;5072934;28;45353;-74
2023/06/27 01:33:27;;;;;;;;;3.00;1.00;;;;;21.15;75.98;101987.84;5065635;28;45300;-72
2023/06/27 01:36:17;;;;;;;;;2.00;1.00;;;;;21.13;75.93;101986.94;5048536;28;45549;-72
2023/06/27 01:39:04;;;;;;;;;0.00;0.00;;;;;21.11;76.80;101986.09;5058050;28;46528;-74
2023/06/27 01:41:31;;;;;;;;;1.00;1.00;;;;;21.06;76.76;101980.78;5065427;28;45387;-73
2023/06/27 01:43:57;;;;;;;;;0.00;0.00;;;;;20.98;77.03;101980.00;5073840;28;45502;-72
2023/06/27 01:46:23;;;;;;;;;1.00;1.00;;;;;20.92;77.85;101978.28;5051897;28;45367;-73
2023/06/27 01:48:50;;;;;;;;;2.00;0.33;;;;;20.88;77.99;101983.75;5052803;28;46320;-74
2023/06/27 01:51:16;;;;;;;;;1.00;1.00;;;;;20.84;78.56;101973.94;5048055;28;45462;-73
2023/06/27 01:53:41;;;;;;;;;1.33;1.33;;;;;20.83;78.52;101980.22;5051104;28;45264;-73
2023/06/27 01:56:08;;;;;;;;;0.67;0.67;;;;;20.79;79.31;101984.72;5060577;28;45543;-73
2023/06/27 01:58:34;;;;;;;;;3.00;1.00;;;;;20.78;79.73;101985.66;5067420;28;46824;-73
2023/06/27 02:00:59;;;;;;;;;2.67;2.00;;;;;20.80;79.41;101989.19;5070377;28;61942;-72
2023/06/27 02:03:25;;;;;;;;;1.00;1.00;;;;;20.81;80.33;101979.34;5070257;28;45268;-72
2023/06/27 02:05:51;;;;;;;;;1.67;1.00;;;;;20.75;81.14;101985.69;5076808;28;45634;-73
2023/06/27 02:08:16;;;;;;;;;0.00;0.00;;;;;20.73;81.34;101986.63;5071955;28;52408;-74
2023/06/27 02:10:41;;;;;;;;;4.00;1.00;;;;;20.67;81.54;101979.53;5071478;28;57231;-74
2023/06/27 02:13:07;;;;;;;;;4.00;1.00;;;;;20.67;81.77;101980.41;5059018;28;45805;-73
2023/06/27 02:15:32;;;;;;;;;2.00;0.00;;;;;20.62;82.36;101984.06;5076080;28;45514;-72
2023/06/27 02:17:58;;;;;;;;;1.00;1.00;;;;;20.61;82.42;101984.94;5078640;28;45379;-75
2023/06/27 02:20:24;;;;;;;;;0.67;0.67;;;;;20.59;82.21;101984.97;5048396;28;46369;-75
2023/06/27 02:22:49;;;;;;;;;1.67;1.67;;;;;20.57;82.49;101980.56;5077948;28;45803;-72
2023/06/27 02:25:15;;;;;;;;;2.00;1.00;;;;;20.54;83.25;101988.63;5076034;28;56635;-73
2023/06/27 02:27:40;;;;;;;;;3.00;1.67;;;;;20.48;83.93;101978.84;5072902;28;57603;-73
2023/06/27 02:30:06;;;;;;;;;1.00;1.00;;;;;20.46;83.80;101987.81;5077802;28;54820;-73
2023/06/27 02:32:31;;;;;;;;;0.67;0.67;;;;;20.41;84.02;101991.41;5070669;28;45411;-74
2023/06/27 02:34:57;;;;;;;;;0.00;0.00;;;;;20.37;84.65;101983.41;5078257;28;49039;-72
2023/06/27 02:37:22;;;;;;;;;0.67;0.67;;;;;20.36;84.83;101982.53;5076803;28;62104;-74
2023/06/27 02:39:50;;;;;;;;;2.33;1.33;;;;;20.38;84.42;101993.25;5077698;28;66438;-72
2023/06/27 02:42:15;;;;;;;;;3.00;1.00;;;;;20.32;84.87;101987.94;5077901;28;45442;-72
2023/06/27 02:44:41;;;;;;;;;1.33;1.00;;;;;20.31;85.13;101991.53;5078269;28;45312;-75
2023/06/27 02:47:06;;;;;;;;;2.67;1.33;;;;;20.32;85.26;101996.00;5078267;28;45635;-74
2023/06/27 02:49:31;;;;;;;;;1.00;1.00;;;;;20.28;86.10;102000.50;5077775;28;45465;-73
2023/06/27 02:51:57;;;;;;;;;1.00;1.00;;;;;20.27;86.08;101990.69;5078246;28;45332;-73
2023/06/27 02:54:22;;;;;;;;;1.00;1.00;;;;;20.27;86.48;101993.34;5077455;28;45980;-73
2023/06/27 02:56:47;;;;;;;;;2.67;1.33;;;;;20.26;86.07;101986.22;5078265;28;45619;-73
2023/06/27 02:59:13;;;;;;;;;3.00;1.33;;;;;20.26;86.51;101994.28;5074240;28;64902;-76
2023/06/27 03:01:38;;;;;;;;;0.00;0.00;;;;;20.24;87.37;102004.13;5059464;28;45398;-75
2023/06/27 03:04:04;;;;;;;;;4.00;1.33;;;;;20.22;87.05;101992.50;5074749;28;45649;-72
2023/06/27 03:06:29;;;;;;;;;1.00;1.00;;;;;20.24;87.15;101995.16;5074506;28;46391;-72
2023/06/27 03:08:54;;;;;;;;;1.00;1.00;;;;;20.22;87.44;101994.31;5044316;28;57310;-73
2023/06/27 03:11:20;;;;;;;;;1.00;1.00;;;;;20.21;87.98;101992.53;5075135;28;45268;-76
2023/06/27 03:13:45;;;;;;;;;1.67;1.00;;;;;20.21;87.91;101997.91;5064999;28;45692;-72
2023/06/27 03:16:11;;;;;;;;;1.33;1.33;;;;;20.20;nan;101988.09;5059581;28;54179;-73
2023/06/27 03:18:36;;;;;;;;;2.67;0.67;;;;;20.18;88.49;101995.25;5063686;28;45517;-72
2023/06/27 03:21:02;;;;;;;;;2.33;1.67;;;;;20.12;88.64;101982.78;5078341;28;45426;-73
2023/06/27 03:23:27;;;;;;;;;4.00;2.00;;;;;20.15;89.49;101990.81;5076346;28;45554;-72
2023/06/27 03:25:53;;;;;;;;;1.33;1.33;;;;;20.11;89.20;101981.91;5076916;28;49338;-72
2023/06/27 03:28:18;;;;;;;;;3.00;0.67;;;;;20.08;89.49;101986.38;5074413;28;45486;-73
2023/06/27 03:30:43;;;;;;;;;3.67;2.00;;;;;20.07;90.04;101989.97;5071961;28;45541;-72
2023/06/27 03:33:10;;;;;;;;;4.00;2.67;;;;;20.04;89.30;101982.88;5051054;28;52326;-72
2023/06/27 03:35:35;;;;;;;;;3.67;1.67;;;;;20.02;89.67;101976.63;5067462;28;46506;-74
2023/06/27 03:38:01;;;;;;;;;3.33;1.33;;;;;20.04;89.98;101973.94;5067218;28;45349;-72
2023/06/27 03:40:26;;;;;;;;;1.00;1.00;;;;;20.03;90.03;101973.06;5062433;28;45275;-72
2023/06/27 03:42:51;;;;;;;;;0.67;0.67;;;;;20.01;90.06;101969.47;5074829;28;45545;-73
2023/06/27 03:45:16;;;;;;;;;2.67;1.00;;;;;20.01;90.12;101971.28;5060103;28;65514;-73
2023/06/27 03:47:42;;;;;;;;;1.33;1.33;;;;;20.02;90.29;101971.25;5071590;28;54680;-72
2023/06/27 03:50:07;;;;;;;;;3.33;1.33;;;;;20.01;91.03;101977.53;5067386;28;45430;-75
2023/06/27 03:52:33;;;;;;;;;1.67;1.67;;;;;20.01;90.58;101979.31;5070113;28;45570;-72
2023/06/27 03:54:58;;;;;;;;;2.67;1.00;;;;;20.01;90.57;101979.31;5073208;28;51333;-72
2023/06/27 03:57:23;;;;;;;;;3.00;2.00;;;;;19.99;91.11;101975.78;5074661;28;45974;-73
2023/06/27 03:59:49;;;;;;;;;3.00;1.67;;;;;19.97;91.55;101974.88;5073556;28;54713;-72
2023/06/27 04:02:14;;;;;;;;;2.67;1.67;;;;;19.94;92.28;101972.25;5072514;28;45431;-72
2023/06/27 04:04:39;;;;;;;;;2.33;1.67;;;;;19.89;92.54;101973.19;5069726;28;46413;-74
2023/06/27 04:07:05;;;;;;;;;5.00;2.67;;;;;19.85;92.98;101978.56;5072737;28;45230;-73
2023/06/27 04:09:30;;;;;;;;;3.33;1.67;;;;;19.84;92.88;101977.69;5076426;28;45242;-73
2023/06/27 04:11:58;;;;;;;;;4.67;1.67;;;;;19.83;93.64;101978.59;5067716;28;45462;-72
2023/06/27 04:14:24;;;;;;;;;3.00;1.00;;;;;19.80;94.21;101980.41;5061129;28;47581;-72
2023/06/27 04:16:49;;;;;;;;;1.33;1.33;;;;;19.76;94.30;101976.88;5055689;28;45472;-74
2023/06/27 04:19:14;;;;;;;;;1.00;1.00;;;;;19.75;95.43;101977.75;5058458;28;54957;-73
2023/06/27 04:21:40;;;;;;;;;1.33;1.33;;;;;19.71;95.57;101980.47;5063157;28;45359;-73
2023/06/27 04:24:06;;;;;;;;;2.33;1.33;;;;;19.66;95.85;101985.91;5055762;28;45512;-72
2023/06/27 04:26:31;;;;;;;;;3.00;1.33;;;;;19.63;95.98;101988.59;5079787;28;46013;-72
2023/06/27 04:28:56;;;;;;;;;1.00;0.67;;;;;19.59;96.22;101981.47;5081749;28;45312;-74
2023/06/27 04:31:22;;;;;;;;;1.67;1.67;;;;;19.59;97.39;101990.41;5080625;28;45199;-75
2023/06/27 04:33:47;;;;;;;;;1.67;1.67;;;;;19.55;98.05;101982.38;5078931;28;46255;-72
2023/06/27 04:36:15;;;;;;;;;2.33;1.67;;;;;19.52;97.84;101977.03;5058089;28;45354;-75
2023/06/27 04:38:41;;;;;;;;;3.33;2.00;;;;;19.52;98.22;101983.28;5073754;28;45521;-73
2023/06/27 04:41:08;;;;;;;;;1.67;1.67;;;;;19.53;98.41;101978.81;5075533;28;45331;-73
2023/06/27 04:43:34;;;;;;;;;3.67;1.67;;;;;19.53;98.08;101981.50;5076766;28;46437;-72
2023/06/27 04:45:59;;;;;;;;;5.00;2.33;;;;;19.54;98.89;101986.81;5076127;28;45537;-72
2023/06/27 04:48:28;;;;;;;;;6.33;2.33;;;;;19.57;99.02;101978.78;5069029;28;45317;-72
2023/06/27 04:50:55;;;;;;;;;1.67;1.67;;;;;19.61;99.14;101975.22;5081189;28;45617;-74
2023/06/27 04:53:23;;;;;;;;;2.33;2.33;;;;;19.63;99.06;101973.41;5066439;28;47088;-72
2023/06/27 04:55:50;;;;;;;;;2.00;2.00;;;;;19.67;99.26;101968.03;5068150;28;45488;-72
2023/06/27 04:58:16;;;;;;;;;3.33;3.00;;;;;19.67;99.25;101974.28;5074453;28;45307;-73
2023/06/27 05:00:42;;;;;;;;;2.00;0.33;;;;;19.63;99.09;101967.16;5063565;28;45455;-72
2023/06/27 05:03:07;;;;;;;;;2.67;2.33;;;;;19.59;99.98;101974.31;5070828;28;45712;-72
2023/06/27 05:05:34;;;;;;;;;2.33;2.33;;;;;19.57;100.00;101973.44;5080288;28;51814;-72
2023/06/27 05:08:03;;;;;;;;;6.00;2.00;;;;;19.54;100.00;101977.91;5075896;28;45509;-74
2023/06/27 05:10:29;;;;;;;;;3.67;1.33;;;;;19.51;100.00;101972.59;5078498;28;45358;-73
2023/06/27 05:12:54;;;;;;;;;2.00;2.00;;;;;19.52;100.00;101980.59;5077742;28;46475;-73
2023/06/27 05:15:20;;;;;;;;;1.67;1.67;;;;;19.54;100.00;101991.31;5071280;28;59857;-72
2023/06/27 05:17:52;;;;;;;;;2.67;2.33;;;;;19.52;100.00;101985.97;5075008;28;45825;-76
2023/06/27 05:20:18;;;;;;;;;4.33;1.33;;;;;19.48;100.00;101986.00;5068605;28;45525;-75
2023/06/27 05:22:44;;;;;;;;;2.00;2.00;;;;;19.46;100.00;101983.34;5072000;27;47619;-77
2023/06/27 05:25:09;;;;;;;;;3.67;2.33;;;;;19.51;100.00;101997.59;5079571;27;45843;-75
2023/06/27 05:27:35;;;;;;;;;3.00;2.67;;;;;19.55;100.00;101994.00;5081821;28;45446;-75
2023/06/27 05:30:00;;;;;;;;;4.33;2.33;;;;;19.58;100.00;101991.28;5082126;28;55706;-75
2023/06/27 05:32:25;;;;;;;;;4.00;1.67;;;;;19.61;100.00;101996.66;5082254;28;45520;-74
2023/06/27 05:34:51;;;;;;;;;3.33;2.33;;;;;19.63;100.00;101999.31;5081902;28;50877;-77
2023/06/27 05:37:16;;;;;;;;;1.67;1.67;;;;;19.60;100.00;101997.56;5078373;28;45407;-75
2023/06/27 05:39:41;;;;;;;;;3.00;2.33;;;;;19.49;100.00;101990.44;5074979;28;52585;-75
2023/06/27 05:42:07;;;;;;;;;5.00;1.33;;;;;19.43;100.00;102001.22;5072599;27;46545;-75
2023/06/27 05:44:32;;;;;;;;;1.67;1.67;;;;;19.37;100.00;101988.75;5078771;28;45704;-75
2023/06/27 05:46:58;;;;;;;;;2.67;1.33;;;;;19.38;100.00;101986.06;5077842;27;60539;-75
2023/06/27 05:49:23;;;;;;;;;1.33;1.33;;;;;19.42;100.00;101980.69;5078545;28;45472;-75
2023/06/27 05:51:49;;;;;;;;;1.33;1.33;;;;;19.43;100.00;101987.81;5077123;27;51279;-74
2023/06/27 05:54:14;;;;;;;;;1.33;1.33;;;;;19.42;100.00;101984.25;5076630;27;59140;-75
2023/06/27 05:56:39;;;;;;;;;5.33;2.33;;;;;19.44;100.00;101986.91;5077291;28;56241;-75
2023/06/27 05:59:05;;;;;;;;;4.33;2.33;;;;;19.47;100.00;101984.22;5075758;28;45631;-74
2023/06/27 06:01:30;;;;;;;;;2.00;2.00;;;;;19.53;100.00;101982.38;5078111;28;46321;-75
2023/06/27 06:03:55;;;;;;;;;6.00;2.33;;;;;19.58;100.00;101983.22;5078609;28;45540;-77
2023/06/27 06:06:21;;;;;;;;;4.67;2.67;;;;;19.64;100.00;101985.00;5078129;28;45570;-75
2023/06/27 06:08:46;;;;;;;;;2.33;2.33;;;;;19.68;100.00;101986.78;5073110;28;45396;-76
2023/06/27 06:11:12;;;;;;;;;3.33;2.67;;;;;19.72;100.00;101985.84;5078073;28;47706;-76
2023/06/27 06:13:37;;;;;;;;;2.67;2.67;;;;;19.78;100.00;101988.47;5059191;28;52948;-74
2023/06/27 06:16:03;;;;;;;;;3.33;2.00;;;;;19.81;100.00;101983.06;5073917;28;45311;-75
2023/06/27 06:18:28;;;;;;;;;3.67;2.00;;;;;19.86;100.00;101991.97;5075040;28;47111;-75
2023/06/27 06:20:53;;;;;;;;;8.67;2.67;;;;;19.88;100.00;101981.25;5177020;22;55441;-74
2023/06/27 06:23:18;;;;;;;;;6.00;2.67;;;;;19.93;100.00;101989.25;5075723;28;46903;-76
2023/06/27 06:25:44;;;;;;;;;5.67;1.67;;;;;19.98;100.00;101990.09;5075683;28;59843;-75
2023/06/27 06:28:09;;;;;;;;;5.00;2.33;;;;;19.97;100.00;101983.81;5070933;28;50032;-73
2023/06/27 06:30:35;;;;;;;;;3.33;3.33;;;;;19.94;100.00;101991.03;5069906;28;68180;-75
2023/06/27 06:33:00;;;;;;;;;3.67;2.67;;;;;19.91;100.00;101993.72;5070632;28;45454;-74
2023/06/27 06:35:26;;;;;;;;;3.00;3.00;;;;;19.95;100.00;101995.47;5072164;27;59240;-73
2023/06/27 06:37:51;;;;;;;;;2.67;2.33;;;;;19.93;100.00;101984.78;5070702;27;60312;-75
2023/06/27 06:40:16;;;;;;;;;5.67;3.00;;;;;19.93;100.00;101994.59;5071132;28;63109;-75
2023/06/27 06:42:42;;;;;;;;;5.00;3.33;;;;;19.91;100.00;101999.97;5071987;28;65032;-74
2023/06/27 06:45:08;;;;;;;;;4.00;1.67;;;;;19.90;100.00;101995.50;5064023;28;63913;-75
2023/06/27 06:47:34;;;;;;;;;3.67;2.33;;;;;19.91;100.00;102004.44;5075776;28;45564;-76
2023/06/27 06:49:59;;;;;;;;;4.67;3.00;;;;;19.91;100.00;101997.28;5077160;28;47485;-75
2023/06/27 06:52:25;;;;;;;;;2.33;2.00;;;;;19.92;100.00;101998.16;5076648;28;65894;-74
2023/06/27 06:54:50;;;;;;;;;4.33;2.33;;;;;19.93;100.00;101992.81;5076786;28;45565;-73
2023/06/27 06:57:15;;;;;;;;;2.67;2.67;;;;;19.94;100.00;101999.94;5077400;27;45430;-74
2023/06/27 06:59:41;;;;;;;;;5.33;2.00;;;;;19.96;100.00;101998.13;5074723;28;70183;-73
2023/06/27 07:02:06;;;;;;;;;6.33;2.67;;;;;20.00;100.00;102009.72;5075559;28;64643;-73
2023/06/27 07:04:31;;;;;;;;;3.00;3.00;;;;;20.01;100.00;102001.66;5073796;28;45366;-74
2023/06/27 07:06:57;;;;;;;;;7.00;3.00;;;;;20.05;100.00;102000.72;5072986;28;45610;-73
2023/06/27 07:09:22;;;;;;;;;4.33;2.00;;;;;20.09;100.00;101994.44;5076537;28;57083;-73
2023/06/27 07:11:50;;;;;;;;;5.67;3.33;;;;;20.08;100.00;101997.13;5072869;28;64612;-74
2023/06/27 07:14:17;;;;;;;;;4.00;2.67;;;;;20.09;100.00;101991.75;5069991;28;46160;-74
2023/06/27 07:16:43;;;;;;;;;4.00;1.67;;;;;20.08;100.00;101997.13;5059488;28;45334;-73
2023/06/27 07:19:09;;;;;;;;;2.00;2.00;;;;;20.13;100.00;102006.00;5075477;28;46887;-74
2023/06/27 07:21:34;;;;;;;;;3.33;2.00;;;;;20.18;100.00;102012.22;5076303;28;45414;-74
2023/06/27 07:24:00;;;;;;;;;3.33;3.33;;;;;20.24;100.00;102005.91;5074063;28;45468;-73
2023/06/27 07:26:25;;;;;;;;;6.00;3.00;;;;;20.29;100.00;102009.44;5069984;28;45249;-74
2023/06/27 07:28:51;;;;;;;;;2.33;2.00;;;;;20.32;100.00;101996.00;5077240;28;46764;-73
2023/06/27 07:31:16;;;;;;;;;2.00;2.00;;;;;20.38;100.00;102004.84;5077002;28;56132;-73
2023/06/27 07:33:42;;;;;;;;;2.00;2.00;;;;;20.40;100.00;102008.44;5058562;28;56106;-74
2023/06/27 07:36:07;;;;;;;;;2.33;2.33;;;;;20.46;100.00;102003.91;5077024;28;47649;-74
2023/06/27 07:38:32;;;;;;;;;5.33;2.67;;;;;20.55;100.00;102006.50;5076967;28;46564;-74
2023/06/27 07:40:58;;;;;;;;;5.00;2.67;;;;;20.60;100.00;102001.97;5077255;28;45200;-73
2023/06/27 07:43:23;;;;;;;;;4.00;2.00;;;;;20.64;100.00;102009.06;5076745;28;49423;-73
2023/06/27 07:45:49;;;;;;;;;3.00;3.00;;;;;20.71;100.00;102009.88;5076333;28;45447;-74
2023/06/27 07:48:14;;;;;;;;;3.00;3.00;;;;;20.74;100.00;102008.06;5076565;28;62665;-74
2023/06/27 07:50:40;;;;;;;;;6.00;3.33;;;;;20.82;100.00;102011.53;5076901;28;45446;-74
2023/06/27 07:53:05;;;;;;;;;3.00;1.00;;;;;20.86;100.00;101998.97;5076738;28;57063;-73
2023/06/27 07:55:30;;;;;;;;;1.00;1.00;;;;;20.88;100.00;101995.38;5076085;28;45514;-74
2023/06/27 07:57:56;;;;;;;;;2.33;2.33;;;;;20.95;100.00;101996.16;5076088;28;46396;-74
2023/06/27 08:00:22;;;;;;;;;4.00;2.00;;;;;20.98;100.00;101995.22;5071493;28;46026;-73
2023/06/27 08:02:48;;;;;;;;;3.00;1.00;;;;;21.03;100.00;101996.03;5076884;28;45437;-73
2023/06/27 08:05:13;;;;;;;;;2.67;2.67;;;;;21.12;100.00;102007.56;5075053;28;45533;-74
2023/06/27 08:07:39;;;;;;;;;4.33;1.67;;;;;21.19;100.00;102005.66;5074599;28;63619;-73
2023/06/27 08:10:05;;;;;;;;;4.00;2.00;;;;;21.22;100.00;101997.56;5060559;28;45324;-73
2023/06/27 08:12:30;;;;;;;;;5.00;3.00;;;;;21.26;100.00;102006.50;5060153;28;45481;-74
2023/06/27 08:14:56;;;;;;;;;3.33;2.33;;;;;21.31;100.00;101997.47;5057946;28;45463;-73
2023/06/27 08:17:21;;;;;;;;;4.00;3.00;;;;;21.35;100.00;101988.44;5069458;28;45689;-73
2023/06/27 08:19:46;;;;;;;;;3.33;1.67;;;;;21.41;100.00;101988.38;5073787;28;51206;-73
2023/06/27 08:22:13;;;;;;;;;2.67;2.67;;;;;21.43;100.00;102002.66;5073608;28;49220;-74
2023/06/27 08:24:40;;;;;;;;;3.67;2.33;;;;;21.44;100.00;101988.31;5069457;28;45288;-74
2023/06/27 08:27:05;;;;;;;;;4.00;1.00;;;;;21.48;100.00;101982.91;5075659;28;46093;-74
2023/06/27 08:29:31;;;;;;;;;6.00;2.00;;;;;21.52;100.00;101987.28;5070288;28;45246;-74
2023/06/27 08:31:59;;;;;;;;;4.67;1.00;;;;;21.57;100.00;101991.69;5069358;28;45493;-74
2023/06/27 08:34:25;;;;;;;;;2.00;2.00;;;;;21.62;100.00;101986.22;5067444;28;45378;-74
2023/06/27 08:36:51;;;;;;;;;4.00;2.00;;;;;21.66;100.00;101982.59;5066018;28;46861;-73
2023/06/27 08:39:16;;;;;;;;;8.33;2.00;;;;;21.73;100.00;101977.97;5062789;28;45408;-74
2023/06/27 08:41:42;;;;;;;;;3.00;2.00;;;;;21.75;100.00;101976.19;5072599;28;45494;-73
2023/06/27 08:44:07;;;;;;;;;3.00;3.00;;;;;21.80;100.00;101977.88;5065204;28;45486;-73
2023/06/27 08:46:33;;;;;;;;;1.67;1.67;;;;;21.88;100.00;101980.41;5066721;28;63688;-74
2023/06/27 08:49:02;;;;;;;;;3.33;2.00;;;;;21.91;100.00;101973.19;5054407;28;52011;-74
2023/06/27 08:51:28;;;;;;;;;1.00;1.00;;;;;21.95;100.00;101980.28;5058963;28;45343;-73
2023/06/27 08:53:59;;;;;;;;;3.67;2.00;;;;;21.99;100.00;101962.28;5058825;28;45622;-73
2023/06/27 08:56:25;;;;;;;;;6.33;4.00;;;;;22.13;100.00;101962.94;5038725;28;46704;-74
2023/06/27 08:58:56;;;;;;;;;5.00;2.33;;;;;22.23;100.00;101966.34;5051874;28;56967;-74
2023/06/27 09:01:22;;;;;;;;;4.00;1.67;;;;;22.32;100.00;101966.19;5054420;28;45244;-74
2023/06/27 09:03:48;;;;;;;;;4.67;3.00;;;;;22.41;100.00;101957.91;5069584;28;45486;-75
2023/06/27 09:06:14;;;;;;;;;1.00;1.00;;;;;22.52;100.00;101956.81;5070718;28;60139;-76
2023/06/27 09:08:40;;;;;;;;;5.33;1.00;;;;;22.59;100.00;101955.78;5022608;28;45319;-76
2023/06/27 09:11:09;;;;;;;;;4.00;2.00;;;;;22.65;99.33;101950.25;5070584;28;45405;-79
2023/06/27 09:13:38;;;;;;;;;2.00;2.00;;;;;22.78;100.00;101945.50;5077939;28;45641;-75
2023/06/27 09:16:06;;;;;;;;;3.00;3.00;;;;;22.89;99.02;101940.78;5076388;28;47419;-78
2023/06/27 09:18:34;;;;;;;;;3.00;2.00;;;;;22.97;99.09;101942.38;5053800;28;45393;-81
2023/06/27 09:21:00;;;;;;;;;2.00;2.00;;;;;23.09;96.28;101935.81;5074770;28;45346;-81
2023/06/27 09:23:28;;;;;;;;;1.33;1.33;;;;;23.14;95.68;101931.22;5058516;28;45583;-80
2023/06/27 09:26:10;;;;;;;;;1.00;1.00;;;;;23.14;95.73;101922.25;5075800;28;46182;-79
2023/06/27 09:28:51;;;;;;;;;3.67;2.33;;;;;23.15;94.55;101924.00;5078245;28;45494;-81
2023/06/27 09:31:18;;;;;;;;;2.67;1.00;;;;;23.19;94.40;101917.63;5075871;28;45531;-76
2023/06/27 09:33:44;;;;;;;;;2.67;1.00;;;;;23.20;93.14;101919.41;5061101;28;45500;-76
2023/06/27 09:36:10;;;;;;;;;3.33;2.00;;;;;23.21;93.34;101919.34;5078652;28;45997;-77
2023/06/27 09:38:36;;;;;;;;;2.33;1.00;;;;;23.25;92.28;101917.47;5079334;28;45435;-77
2023/06/27 09:41:04;;;;;;;;;4.00;3.00;;;;;23.25;91.71;101910.28;5076240;28;45558;-77
2023/06/27 09:43:34;;;;;;;;;4.67;2.00;;;;;23.31;92.02;101913.75;5074534;27;45261;-77
2023/06/27 09:45:59;;;;;;;;;1.67;1.67;;;;;23.34;92.95;101909.19;5074943;28;47235;-76
2023/06/27 09:48:25;;;;;;;;;2.33;2.00;;;;;23.40;91.57;101906.31;5073296;27;45386;-75
2023/06/27 09:50:57;;;;;;;;;5.00;2.00;;;;;23.43;90.15;101900.84;5072700;28;47904;-76
2023/06/27 09:53:23;;;;;;;;;4.00;1.67;;;;;23.39;88.76;101901.88;5077548;27;45552;-77
2023/06/27 09:55:48;;;;;;;;;2.00;1.33;;;;;23.40;88.62;101900.94;5052278;28;54532;-76
2023/06/27 09:58:13;;;;;;;;;2.33;2.00;;;;;23.41;87.81;101902.69;5075592;27;45442;-77
2023/06/27 10:00:39;;;;;;;;;3.00;1.00;;;;;23.43;87.42;101897.25;5076135;28;45464;-76
2023/06/27 10:03:08;;;;;;;;;2.67;2.00;;;;;23.46;87.38;101898.09;5076019;27;59685;-77
2023/06/27 10:05:33;;;;;;;;;1.00;1.00;;;;;23.47;86.65;101896.25;5070129;28;46701;-75
2023/06/27 10:07:59;;;;;;;;;1.33;1.33;;;;;23.45;85.91;101890.94;5069584;27;45270;-76
2023/06/27 10:10:25;;;;;;;;;3.00;3.00;;;;;23.50;84.96;101899.78;5077227;28;59525;-76
2023/06/27 10:12:51;;;;;;;;;3.67;1.00;;;;;23.56;84.95;101896.03;5059343;28;45419;-76
2023/06/27 10:15:17;;;;;;;;;2.67;1.00;;;;;23.60;85.35;101891.47;5059388;28;46660;-76
2023/06/27 10:17:44;;;;;;;;;3.00;1.00;;;;;23.71;85.19;101892.09;5060011;28;45430;-76
2023/06/27 10:20:11;;;;;;;;;2.00;2.00;;;;;23.79;83.73;101896.34;5076630;28;46663;-76
2023/06/27 10:22:40;;;;;;;;;2.00;1.00;;;;;23.83;82.33;101886.34;5059637;28;45398;-76
2023/06/27 10:25:06;;;;;;;;;1.67;1.67;;;;;23.85;81.08;101889.88;5058629;28;46615;-76
2023/06/27 10:27:34;;;;;;;;;3.00;2.00;;;;;23.85;81.19;101886.31;5055532;28;45485;-76
2023/06/27 10:30:10;;;;;;;;;2.00;2.00;;;;;23.86;81.41;101886.25;5067753;28;45467;-76
2023/06/27 10:32:43;;;;;;;;;4.00;2.00;;;;;23.89;83.34;101893.41;5066205;28;45442;-76
2023/06/27 10:35:10;;;;;;;;;4.67;2.00;;;;;23.93;82.99;101881.59;5077095;28;47473;-76
2023/06/27 10:37:38;;;;;;;;;2.00;2.00;;;;;23.96;80.66;101884.19;5068307;28;45385;-77
2023/06/27 10:40:04;;;;;;;;;3.00;1.67;;;;;24.06;80.85;101893.81;5067037;28;45427;-77
2023/06/27 10:42:33;;;;;;;;;1.00;1.00;;;;;24.10;78.52;101873.91;5055133;28;45492;-76
2023/06/27 10:45:09;;;;;;;;;4.00;1.00;;;;;24.26;78.84;101885.16;5069788;28;47659;-75
2023/06/27 10:47:38;;;;;;;;;1.00;1.00;;;;;24.39;79.06;101883.88;5077941;28;45240;-75
2023/06/27 10:50:06;;;;;;;;;3.67;2.00;;;;;24.45;78.34;101890.91;5058901;28;45304;-75
2023/06/27 10:52:32;;;;;;;;;1.67;1.00;;;;;24.45;77.74;101883.72;5068472;28;45438;-77
2023/06/27 10:55:15;;;;;;;;;2.00;2.00;;;;;24.49;77.99;101882.66;5073182;28;47044;-76
2023/06/27 10:58:10;;;;;;;;;1.33;1.33;;;;;24.54;76.25;101894.22;5076572;28;45408;-77
2023/06/27 11:00:41;;;;;;;;;4.67;1.33;;;;;24.55;74.70;101890.59;5053357;28;45466;-76
2023/06/27 11:03:08;;;;;;;;;148.50;120.75;;;;;24.65;75.40;101895.72;5075397;27;45495;-76
2023/06/27 11:05:54;;;;;;;;;11.33;7.00;;;;;24.79;75.31;101885.38;5077270;28;46135;-75
2023/06/27 11:08:21;;;;;;;;;1.33;1.33;;;;;24.99;73.58;101885.63;5072904;28;45469;-76
2023/06/27 11:10:58;;;;;;;;;3.00;1.00;;;;;25.13;73.29;101892.41;5051905;28;45509;-76
2023/06/27 11:13:26;;;;;;;;;3.33;1.33;;;;;25.10;72.81;101879.91;5067610;28;45406;-76
2023/06/27 11:15:53;;;;;;;;;3.33;2.00;;;;;25.07;72.95;101880.00;5076908;28;47587;-76
2023/06/27 11:18:20;;;;;;;;;28.67;28.33;;;;;25.02;71.50;101885.50;5061491;28;45523;-77
2023/06/27 11:20:45;;;;;;;;;13.67;10.33;;;;;24.93;70.70;101883.13;5060595;28;45553;-75